Time;durP1;ratioP1;P1;durP2;ratioP2;P2;SDS_P1;SDS_P2;PMS_P1;PMS_P2;Temp;Humidity;BMP_temperature;BMP_pressure;BME280_temperature;BME280_humidity;BME280_pressure;Samples;Min_cycle;Max_cycle;Signal;HPM_P1;HPM_P2
2021/11/14 00:01:46;;;;;;;4.63;3.40;;;;;;;5.50;58.05;101196.63;5023839;28;20037;-77
2021/11/14 00:04:12;;;;;;;5.20;3.28;;;;;;;5.43;58.08;101172.28;5024925;28;20121;-76
2021/11/14 00:06:38;;;;;;;4.38;2.92;;;;;;;5.47;58.62;101190.47;4997160;28;20061;-77
2021/11/14 00:09:05;;;;;;;6.45;2.67;;;;;;;5.49;58.90;101192.28;5023832;28;20049;-76
2021/11/14 00:11:31;;;;;;;3.85;2.80;;;;;;;5.46;58.16;101179.28;5003443;28;20136;-76
2021/11/14 00:13:58;;;;;;;5.25;3.58;;;;;;;5.54;58.67;101182.97;5005721;28;20037;-75
2021/11/14 00:16:25;;;;;;;5.43;3.95;;;;;;;5.66;58.50;101192.84;5008352;28;20561;-74
2021/11/14 00:18:51;;;;;;;7.60;4.65;;;;;;;5.70;58.17;101199.00;5007954;28;20072;-78
2021/11/14 00:21:19;;;;;;;7.93;4.43;;;;;;;5.65;58.20;101188.50;5003416;28;20096;-77
2021/11/14 00:23:45;;;;;;;6.55;4.72;;;;;;;5.69;57.61;101198.13;5023651;28;20076;-75
2021/11/14 00:26:11;;;;;;;6.78;4.20;;;;;;;5.72;58.56;101198.22;5007701;28;20042;-77
2021/11/14 00:28:39;;;;;;;6.00;4.05;;;;;;;5.62;58.28;101184.94;4995009;28;20033;-76
2021/11/14 00:31:16;;;;;;;5.20;3.42;;;;;;;5.72;58.06;101203.38;4977578;28;20057;-76
2021/11/14 00:33:43;;;;;;;7.28;3.58;;;;;;;5.65;58.47;101196.25;5021188;28;20052;-77
2021/11/14 00:36:10;;;;;;;5.40;3.40;;;;;;;5.59;58.72;101178.00;5006219;28;20087;-77
2021/11/14 00:38:37;;;;;;;4.32;3.20;;;;;;;5.58;58.42;101190.00;5006176;28;20136;-76
2021/11/14 00:41:04;;;;;;;7.10;3.65;;;;;;;5.65;58.54;101201.41;5031842;28;20045;-75
2021/11/14 00:43:30;;;;;;;5.28;3.65;;;;;;;5.68;58.07;101206.69;5006777;28;20140;-75
2021/11/14 00:45:55;;;;;;;6.68;3.72;;;;;;;5.68;58.45;101200.66;4992427;28;20574;-78
2021/11/14 00:48:21;;;;;;;4.63;3.35;;;;;;;5.72;58.39;101205.09;5009034;28;20041;-76
2021/11/14 00:50:48;;;;;;;5.05;3.35;;;;;;;5.58;57.93;101192.59;5003001;28;20498;-76
2021/11/14 00:53:16;;;;;;;6.07;2.97;;;;;;;5.66;57.58;101205.75;4986346;28;20041;-77
2021/11/14 00:55:42;;;;;;;4.80;2.80;;;;;;;5.68;57.45;101206.69;5003782;28;20041;-76
2021/11/14 00:58:08;;;;;;;3.70;2.55;;;;;;;5.64;58.14;101201.38;5022295;28;20050;-74
2021/11/14 01:00:36;;;;;;;2.97;2.35;;;;;;;5.57;57.96;101198.56;4991740;28;20126;-76
2021/11/14 01:03:03;;;;;;;4.35;2.70;;;;;;;5.51;57.94;101198.41;5007692;28;20053;-76
2021/11/14 01:05:30;;;;;;;3.13;2.30;;;;;;;5.54;58.34;101203.63;5003809;28;20114;-78
2021/11/14 01:07:56;;;;;;;4.38;2.22;;;;;;;5.50;58.09;101211.22;4974726;28;20160;-77
2021/11/14 01:10:27;;;;;;;2.85;2.10;;;;;;;5.51;58.08;101211.31;5023315;28;20071;-76
2021/11/14 01:12:53;;;;;;;2.88;2.10;;;;;;;5.48;57.79;101200.88;5024235;28;20485;-77
2021/11/14 01:15:20;;;;;;;2.03;1.70;;;;;;;5.51;57.24;101211.31;4991433;28;20045;-76
2021/11/14 01:17:46;;;;;;;4.32;1.80;;;;;;;5.32;57.40;101181.38;5004128;28;20060;-75
2021/11/14 01:20:16;;;;;;;2.88;1.73;;;;;;;5.51;56.95;101213.88;5005703;28;20073;-75
2021/11/14 01:22:42;;;;;;;5.03;2.10;;;;;;;5.54;57.32;101207.94;5009785;28;20041;-75
2021/11/14 01:25:10;;;;;;;3.83;1.92;;;;;;;5.52;56.67;101214.75;4993860;28;20037;-74
2021/11/14 01:27:37;;;;;;;3.25;1.95;;;;;;;5.46;57.29;101209.38;5004162;28;20045;-75
2021/11/14 01:30:06;;;;;;;3.25;1.80;;;;;;;5.47;57.40;101208.53;4990814;28;20049;-77
2021/11/14 01:32:31;;;;;;;3.78;2.33;;;;;;;5.37;56.86;101199.59;5023884;28;20041;-76
2021/11/14 01:34:57;;;;;;;3.83;2.05;;;;;;;5.42;56.55;101209.25;5008921;28;20046;-75
2021/11/14 01:37:23;;;;;;;4.43;2.65;;;;;;;5.41;56.75;101207.50;4995313;28;20069;-75
2021/11/14 01:39:49;;;;;;;5.75;2.67;;;;;;;5.40;56.60;101202.28;5026183;28;20038;-75
2021/11/14 01:42:15;;;;;;;4.53;2.70;;;;;;;5.44;56.71;101211.91;4991387;28;20043;-75
2021/11/14 01:44:40;;;;;;;3.97;2.40;;;;;;;5.36;56.33;101203.91;5023921;28;20072;-75
2021/11/14 01:47:07;;;;;;;2.80;2.30;;;;;;;5.35;57.43;101201.25;5007167;28;20225;-77
2021/11/14 01:49:32;;;;;;;2.88;2.20;;;;;;;5.37;57.14;101208.25;4977879;28;20065;-75
2021/11/14 01:51:58;;;;;;;2.55;1.90;;;;;;;5.40;57.12;101215.19;5025905;28;20203;-75
2021/11/14 01:54:24;;;;;;;4.10;2.28;;;;;;;5.32;56.83;101201.13;5006845;28;21923;-76
2021/11/14 01:56:51;;;;;;;3.13;2.05;;;;;;;5.42;56.81;101219.56;4995751;28;20050;-78
2021/11/14 01:59:17;;;;;;;3.28;1.77;;;;;;;5.43;57.09;101217.91;4995602;28;20041;-76
2021/11/14 02:01:43;;;;;;;2.50;1.80;;;;;;;5.37;56.65;101215.97;4991417;28;20049;-75
2021/11/14 02:04:09;;;;;;;2.60;1.88;;;;;;;5.32;57.33;101212.34;5031920;28;20041;-75
2021/11/14 02:06:39;;;;;;;3.15;1.88;;;;;;;5.28;57.31;101206.22;5026280;28;20148;-76
2021/11/14 02:09:05;;;;;;;2.78;1.80;;;;;;;5.25;57.18;101200.94;5002681;28;20481;-75
2021/11/14 02:11:31;;;;;;;2.63;1.65;;;;;;;5.26;56.85;101202.69;4993727;28;20045;-75
2021/11/14 02:13:56;;;;;;;2.78;1.90;;;;;;;5.34;57.03;101223.63;4991519;28;20327;-76
2021/11/14 02:16:26;;;;;;;3.28;1.92;;;;;;;5.36;57.19;101219.38;5009949;28;20132;-76
2021/11/14 02:18:52;;;;;;;3.35;1.90;;;;;;;5.32;56.38;101206.28;5024648;28;20056;-77
2021/11/14 02:21:20;;;;;;;3.05;1.98;;;;;;;5.40;57.24;101215.19;5007710;28;20091;-74
2021/11/14 02:23:46;;;;;;;3.20;1.92;;;;;;;5.47;56.83;101226.63;5000145;28;20061;-76
2021/11/14 02:26:13;;;;;;;2.75;1.90;;;;;;;5.32;56.84;101206.28;5029144;28;20052;-78
2021/11/14 02:28:40;;;;;;;2.63;1.98;;;;;;;5.38;57.37;101222.00;5013297;28;20389;-75
2021/11/14 02:31:08;;;;;;;3.53;2.47;;;;;;;5.39;57.19;101218.59;5007786;28;20054;-75
2021/11/14 02:33:34;;;;;;;2.95;2.20;;;;;;;5.30;56.55;101203.69;5006798;28;20132;-76
2021/11/14 02:36:11;;;;;;;4.05;2.33;;;;;;;5.45;57.68;101238.59;4994589;28;20110;-76
2021/11/14 02:38:37;;;;;;;2.95;2.28;;;;;;;5.43;56.86;101235.97;5005753;28;20056;-77
2021/11/14 02:41:03;;;;;;;8.18;2.40;;;;;;;5.45;57.26;101233.41;5006907;28;20080;-76
2021/11/14 02:43:29;;;;;;;5.80;2.22;;;;;;;5.47;56.82;101237.84;5007079;28;20042;-75
2021/11/14 02:45:56;;;;;;;4.85;2.33;;;;;;;5.51;56.97;101246.56;5002388;28;20040;-75
2021/11/14 02:48:22;;;;;;;3.92;2.55;;;;;;;5.46;57.22;101230.00;5004407;28;20603;-75
2021/11/14 02:50:51;;;;;;;8.30;3.92;;;;;;;5.50;56.89;101239.63;4990365;28;20177;-76
2021/11/14 02:53:17;;;;;;;8.18;4.43;;;;;;;5.50;56.70;101237.06;5006017;28;20041;-76
2021/11/14 02:55:44;;;;;;;6.25;4.13;;;;;;;5.43;57.49;101234.25;4984972;28;20042;-77
2021/11/14 02:58:10;;;;;;;8.73;4.57;;;;;;;5.49;56.78;101235.28;5004262;28;20099;-75
2021/11/14 03:00:49;;;;;;;7.57;3.88;;;;;;;5.55;57.03;101238.97;5001858;28;20505;-76
2021/11/14 03:03:15;;;;;;;7.88;4.70;;;;;;;5.54;56.83;101234.63;5007037;28;20129;-76
2021/11/14 03:05:41;;;;;;;5.00;3.50;;;;;;;5.49;57.04;101224.97;4989302;28;20092;-77
2021/11/14 03:08:08;;;;;;;5.63;3.38;;;;;;;5.42;56.36;101210.97;5002746;28;20493;-78
2021/11/14 03:10:34;;;;;;;5.40;3.55;;;;;;;5.50;56.66;101218.97;5003080;28;20111;-75
2021/11/14 03:13:07;;;;;;;4.82;3.28;;;;;;;5.43;55.95;101217.91;5004520;28;20100;-75
2021/11/14 03:15:37;;;;;;;4.50;2.80;;;;;;;5.45;57.07;101229.16;5006746;28;20113;-76
2021/11/14 03:18:04;;;;;;;7.93;2.80;;;;;;;5.41;56.42;101217.81;5004241;28;20081;-76
2021/11/14 03:20:30;;;;;;;3.35;2.03;;;;;;;5.34;56.71;101204.66;5003576;28;20379;-75
2021/11/14 03:22:56;;;;;;;6.63;1.90;;;;;;;5.28;55.94;101213.97;5005624;28;20489;-76
2021/11/14 03:25:29;;;;;;;3.70;1.50;;;;;;;5.24;56.44;101214.66;5005011;28;20046;-76
2021/11/14 03:27:56;;;;;;;2.28;1.40;;;;;;;5.22;56.23;101210.25;5003290;28;20038;-78
2021/11/14 03:30:24;;;;;;;1.38;1.10;;;;;;;5.15;57.14;101206.59;5021815;28;20053;-76
2021/11/14 03:32:51;;;;;;;1.67;1.30;;;;;;;5.05;56.29;101189.03;4988978;28;20546;-77
2021/11/14 03:35:18;;;;;;;5.20;1.58;;;;;;;5.18;56.54;101211.00;4988900;28;20140;-75
2021/11/14 03:37:44;;;;;;;3.60;2.05;;;;;;;5.20;56.46;101205.06;5009046;28;20046;-77
2021/11/14 03:40:12;;;;;;;8.80;4.90;;;;;;;5.37;55.99;101215.09;5011743;28;20030;-75
2021/11/14 03:42:39;;;;;;;7.63;4.45;;;;;;;5.41;56.96;101222.13;5004620;28;20056;-77
2021/11/14 03:45:06;;;;;;;6.13;3.58;;;;;;;5.39;56.73;101209.16;4988342;28;20049;-76
2021/11/14 03:47:32;;;;;;;5.95;3.30;;;;;;;5.38;56.30;101212.56;5023714;28;20412;-74
2021/11/14 03:49:58;;;;;;;4.30;2.95;;;;;;;5.35;56.12;101209.88;5007394;28;20061;-76
2021/11/14 03:52:24;;;;;;;2.83;1.98;;;;;;;5.45;56.57;101217.94;4994121;28;20274;-78
2021/11/14 03:54:51;;;;;;;3.20;2.22;;;;;;;5.41;56.75;101211.78;5023106;28;20494;-75
2021/11/14 03:57:16;;;;;;;4.47;2.40;;;;;;;5.50;56.47;101219.88;5007293;28;20445;-75
2021/11/14 03:59:42;;;;;;;3.10;2.50;;;;;;;5.48;56.60;101223.22;4992565;28;20501;-74
2021/11/14 04:02:08;;;;;;;4.22;2.95;;;;;;;5.37;56.36;101204.75;5008190;28;20045;-75
2021/11/14 04:04:34;;;;;;;8.27;3.28;;;;;;;5.47;56.54;101221.44;5007683;28;20033;-76
2021/11/14 04:07:00;;;;;;;4.25;2.30;;;;;;;5.47;55.55;101218.88;4990177;28;20408;-76
2021/11/14 04:09:26;;;;;;;4.10;2.10;;;;;;;5.43;55.79;101220.47;5006512;28;20045;-75
2021/11/14 04:11:52;;;;;;;3.17;1.90;;;;;;;5.43;55.39;101225.63;5001902;28;20424;-76
2021/11/14 04:14:18;;;;;;;5.18;2.42;;;;;;;5.33;55.57;101219.28;5004869;28;20561;-78
2021/11/14 04:16:44;;;;;;;2.88;2.00;;;;;;;5.40;55.63;101226.41;5007050;28;20049;-76
2021/11/14 04:19:11;;;;;;;5.18;2.63;;;;;;;5.43;56.33;101225.63;5011205;28;20042;-78
2021/11/14 04:21:38;;;;;;;3.38;2.15;;;;;;;5.47;55.37;101226.63;5010222;28;20049;-76
2021/11/14 04:24:04;;;;;;;5.78;2.28;;;;;;;5.42;55.43;101211.84;5023675;28;20501;-75
2021/11/14 04:26:30;;;;;;;3.50;2.00;;;;;;;5.37;55.53;101203.06;4977243;28;20404;-75
2021/11/14 04:28:56;;;;;;;7.78;1.90;;;;;;;5.46;55.39;101223.16;5007151;28;20049;-75
2021/11/14 04:31:22;;;;;;;4.53;2.03;;;;;;;5.30;55.87;101206.25;5008059;28;20392;-77
2021/11/14 04:33:48;;;;;;;8.90;2.17;;;;;;;5.39;55.68;101219.50;5005591;28;20040;-74
2021/11/14 04:36:14;;;;;;;9.73;2.50;;;;;;;5.29;55.67;101212.25;5004755;28;20038;-76
2021/11/14 04:38:41;;;;;;;5.90;2.25;;;;;;;5.31;55.91;101217.44;5016717;28;20088;-77
2021/11/14 04:41:08;;;;;;;9.13;2.00;;;;;;;5.26;55.63;101228.50;5002644;28;20041;-75
2021/11/14 04:43:33;;;;;;;7.32;2.78;;;;;;;5.21;55.74;101226.56;5012146;28;20044;-78
2021/11/14 04:46:01;;;;;;;13.18;2.40;;;;;;;5.12;56.10;101203.88;5008491;28;20042;-75
2021/11/14 04:48:27;;;;;;;10.70;2.35;;;;;;;5.21;56.00;101227.47;4972336;28;20559;-76
2021/11/14 04:50:53;;;;;;;9.10;2.80;;;;;;;5.20;55.58;101228.28;5005026;28;20072;-76
2021/11/14 04:53:19;;;;;;;8.40;2.92;;;;;;;5.19;56.18;101225.63;4991700;28;20136;-77
2021/11/14 04:55:46;;;;;;;8.57;2.53;;;;;;;5.09;55.69;101215.00;5005171;28;20100;-75
2021/11/14 04:58:13;;;;;;;4.50;2.42;;;;;;;5.15;55.78;101228.94;5002623;28;20044;-76
2021/11/14 05:00:51;;;;;;;11.23;3.10;;;;;;;5.11;56.53;101223.66;5006570;28;20076;-74
2021/11/14 05:03:18;;;;;;;12.05;3.40;;;;;;;5.15;56.25;101219.47;4990583;28;20037;-75
2021/11/14 05:05:44;;;;;;;10.70;3.15;;;;;;;5.21;55.83;101229.16;5008906;28;20057;-75
2021/11/14 05:08:11;;;;;;;8.38;2.60;;;;;;;5.17;56.10;101222.16;5022619;28;20189;-77
2021/11/14 05:10:38;;;;;;;9.10;2.72;;;;;;;5.26;56.23;101225.03;5022701;28;20063;-79
2021/11/14 05:13:05;;;;;;;5.65;2.40;;;;;;;5.18;56.20;101219.59;5021231;28;20083;-78
2021/11/14 05:15:31;;;;;;;8.75;2.20;;;;;;;5.24;55.97;101225.00;5022341;28;20038;-76
2021/11/14 05:18:00;;;;;;;8.23;2.58;;;;;;;5.36;56.36;101244.31;5020354;28;20048;-76
2021/11/14 05:20:26;;;;;;;8.68;2.20;;;;;;;5.30;56.14;101238.94;4990021;28;20103;-76
2021/11/14 05:22:52;;;;;;;6.55;2.17;;;;;;;5.32;56.38;101247.59;4988359;28;20038;-78
2021/11/14 05:25:17;;;;;;;7.25;2.25;;;;;;;5.11;56.63;101208.19;5007602;28;20048;-77
2021/11/14 05:27:43;;;;;;;14.52;2.40;;;;;;;5.28;56.36;101250.09;4977118;28;20041;-80
2021/11/14 05:30:10;;;;;;;6.35;2.30;;;;;;;4.97;56.14;101209.38;5021318;28;20156;-76
2021/11/14 05:32:37;;;;;;;5.63;2.55;;;;;;;5.19;56.58;101248.84;5006460;28;20491;-75
2021/11/14 05:35:04;;;;;;;3.83;2.50;;;;;;;5.17;56.50;101245.38;5006592;28;20042;-77
2021/11/14 05:37:45;;;;;;;7.25;2.60;;;;;;;5.09;57.01;101243.38;5006506;28;20048;-77
2021/11/14 05:40:55;;;;;;;6.82;2.30;;;;;;;4.56;56.97;101141.66;5006377;28;20140;-77
2021/11/14 05:43:22;;;;;;;6.05;2.70;;;;;;;5.21;56.97;101253.28;5011945;28;20045;-75
2021/11/14 05:45:48;;;;;;;5.50;2.50;;;;;;;5.22;57.06;101241.22;5013839;28;20525;-75
2021/11/14 05:48:16;;;;;;;4.57;3.10;;;;;;;4.79;56.75;101176.91;5008818;28;20042;-76
2021/11/14 05:50:42;;;;;;;4.75;2.47;;;;;;;4.68;57.18;101170.50;5009629;28;20111;-77
2021/11/14 05:53:11;;;;;;;8.48;2.58;;;;;;;5.07;57.50;101255.34;5008404;28;20041;-76
2021/11/14 05:55:36;;;;;;;5.78;2.17;;;;;;;4.86;56.82;101221.88;5005853;28;20484;-78
2021/11/14 05:58:06;;;;;;;6.60;2.40;;;;;;;4.81;57.79;101215.69;5013530;28;20037;-77
2021/11/14 06:01:06;;;;;;;4.75;2.28;;;;;;;5.05;57.43;101251.81;5014949;28;20045;-78
2021/11/14 06:06:05;;;;;;;6.32;2.15;;;;;;;4.88;57.67;101220.22;5003371;28;20045;-77
2021/11/14 06:08:31;;;;;;;4.72;2.00;;;;;;;4.78;57.75;101207.84;5013939;28;20448;-78
2021/11/14 06:10:58;;;;;;;7.50;2.50;;;;;;;5.04;57.59;101239.75;5004168;28;20038;-76
2021/11/14 06:13:27;;;;;;;8.30;2.70;;;;;;;4.92;57.72;101209.22;5001657;28;20041;-79
2021/11/14 06:15:53;;;;;;;5.65;1.95;;;;;;;5.03;57.59;101219.91;5000438;28;20030;-80
2021/11/14 06:18:20;;;;;;;5.93;2.10;;;;;;;5.24;57.61;101245.63;5001011;28;20041;-79
2021/11/14 06:20:47;;;;;;;8.75;2.90;;;;;;;5.21;57.23;101234.31;5032960;28;20041;-78
2021/11/14 06:23:16;;;;;;;10.60;2.40;;;;;;;5.33;57.66;101252.84;5008948;28;20516;-77
2021/11/14 06:26:01;;;;;;;6.72;2.30;;;;;;;5.37;57.32;101254.72;5016460;28;20049;-80
2021/11/14 06:28:37;;;;;;;6.55;2.22;;;;;;;5.01;56.99;101184.59;5021761;28;20045;-79
2021/11/14 06:31:43;;;;;;;5.85;2.95;;;;;;;4.39;57.16;101085.22;5020743;28;20499;-81
2021/11/14 06:34:08;;;;;;;9.60;2.78;;;;;;;5.17;57.09;101223.00;4981063;28;20599;-78
2021/11/14 06:36:34;;;;;;;4.00;2.33;;;;;;;5.23;57.49;101249.03;5018782;28;20128;-76
2021/11/14 06:39:03;;;;;;;16.13;3.53;;;;;;;5.23;57.36;101255.88;4989441;28;20559;-79
2021/11/14 06:41:29;;;;;;;7.75;2.92;;;;;;;5.03;57.74;101225.09;5019841;28;20099;-78
2021/11/14 06:43:54;;;;;;;6.28;2.92;;;;;;;5.10;57.70;101258.03;5006130;28;20042;-80
2021/11/14 06:46:20;;;;;;;5.55;3.40;;;;;;;4.87;56.95;101217.59;5014730;28;20041;-78
2021/11/14 06:48:51;;;;;;;9.48;3.60;;;;;;;5.05;57.73;101258.69;5005796;28;20132;-81
2021/11/14 06:51:20;;;;;;;9.55;4.07;;;;;;;4.54;57.47;101177.72;5021148;28;20075;-78
2021/11/14 06:53:46;;;;;;;8.30;4.13;;;;;;;4.81;57.85;101213.97;5024572;28;20041;-77
2021/11/14 06:56:12;;;;;;;11.73;4.43;;;;;;;5.07;58.02;101250.19;5004529;28;20042;-79
2021/11/14 06:58:38;;;;;;;15.82;5.28;;;;;;;5.08;57.29;101248.47;5006752;28;20037;-79
2021/11/14 07:01:04;;;;;;;13.27;4.78;;;;;;;5.16;57.86;101262.53;4991253;28;20041;-79
2021/11/14 07:03:30;;;;;;;15.48;4.88;;;;;;;5.08;57.72;101248.47;5024056;28;20105;-79
2021/11/14 07:05:56;;;;;;;10.57;4.75;;;;;;;5.18;58.28;101262.63;5019700;28;20041;-77
2021/11/14 07:08:21;;;;;;;14.25;5.13;;;;;;;4.96;57.86;101225.69;5003981;28;20084;-78
2021/11/14 07:10:47;;;;;;;16.02;4.70;;;;;;;5.07;57.75;101241.56;5006188;28;20125;-78
2021/11/14 07:13:13;;;;;;;13.90;4.85;;;;;;;5.18;58.14;101252.28;5017065;28;20525;-78
2021/11/14 07:15:40;;;;;;;12.70;4.80;;;;;;;5.28;58.33;101269.84;5017185;28;20040;-77
2021/11/14 07:18:08;;;;;;;17.58;4.95;;;;;;;4.94;59.01;101193.81;5029723;28;20732;-78
2021/11/14 07:20:37;;;;;;;11.88;4.30;;;;;;;5.35;58.66;101263.19;4998018;28;20532;-79
2021/11/14 07:23:03;;;;;;;10.07;4.40;;;;;;;5.07;57.55;101211.47;5027024;28;20044;-78
2021/11/14 07:25:29;;;;;;;10.57;4.75;;;;;;;4.81;58.32;101183.03;5017609;28;20049;-79
2021/11/14 07:27:55;;;;;;;12.43;4.70;;;;;;;5.18;58.49;101268.63;5008696;28;20124;-80
2021/11/14 07:30:25;;;;;;;13.00;4.78;;;;;;;5.13;58.40;101271.06;5023136;28;20095;-78
2021/11/14 07:32:56;;;;;;;13.98;5.10;;;;;;;5.09;58.87;101261.44;5004750;28;20140;-79
2021/11/14 07:35:31;;;;;;;11.35;4.70;;;;;;;4.92;58.41;101247.91;5030856;28;20076;-79
2021/11/14 07:38:02;;;;;;;19.85;5.30;;;;;;;4.83;58.97;101238.13;5030343;28;20061;-78
2021/11/14 07:40:28;;;;;;;13.05;5.28;;;;;;;4.94;58.82;101256.59;5026274;28;20121;-79
2021/11/14 07:42:55;;;;;;;16.13;5.20;;;;;;;5.00;59.47;101271.41;5006208;28;20042;-78
2021/11/14 07:45:23;;;;;;;10.25;5.35;;;;;;;5.02;59.08;101267.19;5013652;28;20699;-78
2021/11/14 07:47:50;;;;;;;18.42;5.15;;;;;;;4.98;59.59;101260.16;5011425;28;20041;-80
2021/11/14 07:50:20;;;;;;;14.57;5.18;;;;;;;5.04;59.13;101267.25;5028347;28;20072;-77
2021/11/14 07:52:47;;;;;;;11.07;5.60;;;;;;;5.08;59.70;101263.94;4991780;28;20041;-77
2021/11/14 07:55:15;;;;;;;13.70;5.05;;;;;;;4.89;59.72;101236.59;4995073;28;20038;-78
2021/11/14 07:57:44;;;;;;;13.73;5.40;;;;;;;5.10;59.96;101275.22;5012263;28;20037;-80
2021/11/14 08:00:17;;;;;;;12.75;5.90;;;;;;;4.86;59.49;101231.31;5014614;28;20107;-78
2021/11/14 08:02:49;;;;;;;;;;;;;;;5.12;60.31;101273.56;5006445;28;20037;-78
2021/11/14 08:05:16;;;;;;;13.52;5.47;;;;;;;5.11;59.99;101276.97;5006578;28;19956;-78
2021/11/14 08:07:45;;;;;;;18.42;5.00;;;;;;;5.11;60.27;101275.28;5027252;28;20048;-79
2021/11/14 08:10:13;;;;;;;21.90;5.15;;;;;;;5.06;59.79;101261.31;4980151;28;20424;-80
2021/11/14 08:12:40;;;;;;;12.70;4.70;;;;;;;5.11;60.12;101274.38;5025076;28;20041;-81
2021/11/14 08:15:14;;;;;;;8.52;4.47;;;;;;;4.77;59.80;101211.22;4998440;28;20083;-81
2021/11/14 08:17:51;;;;;;;11.40;4.65;;;;;;;4.61;59.41;101181.41;5010698;28;20136;-81
2021/11/14 08:20:26;;;;;;;8.98;4.32;;;;;;;4.94;60.00;101232.50;5028048;28;20034;-79
2021/11/14 08:22:52;;;;;;;13.45;4.75;;;;;;;5.20;60.14;101258.34;5029559;28;20682;-77
2021/11/14 08:25:19;;;;;;;22.48;5.82;;;;;;;5.22;60.21;101260.19;4996996;28;20037;-80
2021/11/14 08:27:46;;;;;;;18.05;5.38;;;;;;;5.20;60.44;101245.44;5026335;28;20517;-81
2021/11/14 08:30:23;;;;;;;16.55;4.90;;;;;;;5.33;60.22;101251.94;5012105;28;20110;-80
2021/11/14 08:32:59;;;;;;;13.10;4.70;;;;;;;5.38;60.16;101253.00;5010427;28;20110;-79
2021/11/14 08:35:25;;;;;;;12.75;4.13;;;;;;;5.09;60.22;101184.03;4993172;28;20034;-79
2021/11/14 08:37:56;;;;;;;13.48;4.80;;;;;;;5.37;60.27;101218.56;5023415;28;20047;-77
2021/11/14 08:40:32;;;;;;;11.98;3.92;;;;;;;5.29;59.66;101207.06;4995986;28;20053;-79
2021/11/14 08:43:00;;;;;;;14.40;3.95;;;;;;;5.36;59.57;101234.88;4976496;28;20412;-78
2021/11/14 08:45:27;;;;;;;8.05;3.25;;;;;;;5.20;60.16;101206.75;5006489;28;20041;-78
2021/11/14 08:47:54;;;;;;;7.25;3.70;;;;;;;5.30;59.54;101226.03;4991396;28;20040;-79
2021/11/14 08:50:21;;;;;;;14.90;4.22;;;;;;;5.35;59.77;101221.91;5001429;28;20043;-80
2021/11/14 08:52:48;;;;;;;16.00;5.10;;;;;;;5.38;59.29;101222.00;4996008;28;20041;-79
2021/11/14 08:55:19;;;;;;;12.90;4.07;;;;;;;5.28;60.05;101190.72;4994157;28;20056;-79
2021/11/14 08:58:00;;;;;;;13.90;4.25;;;;;;;5.51;59.26;101225.91;4980901;28;20041;-77
2021/11/14 09:00:31;;;;;;;10.68;3.92;;;;;;;5.46;59.81;101209.38;4982750;28;20083;-79
2021/11/14 09:02:58;;;;;;;12.45;4.10;;;;;;;5.48;59.48;101216.34;4993708;28;20045;-79
2021/11/14 09:05:27;;;;;;;18.08;4.75;;;;;;;5.53;58.83;101216.50;4996104;28;20457;-79
2021/11/14 09:07:56;;;;;;;10.50;3.97;;;;;;;5.52;58.69;101212.16;5008262;28;20037;-77
2021/11/14 09:10:24;;;;;;;14.73;3.80;;;;;;;5.50;58.58;101216.41;5017996;28;20037;-78
2021/11/14 09:12:51;;;;;;;15.82;4.57;;;;;;;5.37;58.65;101190.16;5005885;28;20069;-78
2021/11/14 09:15:18;;;;;;;12.88;3.88;;;;;;;5.52;58.35;101209.59;5007683;28;20060;-79
2021/11/14 09:17:45;;;;;;;7.30;3.75;;;;;;;5.59;58.72;101208.97;5001663;28;20095;-79
2021/11/14 09:20:11;;;;;;;7.88;3.35;;;;;;;5.46;58.21;101214.53;5004937;28;20037;-79
2021/11/14 09:22:37;;;;;;;8.35;3.58;;;;;;;5.39;58.01;101210.84;5006775;28;20037;-79
2021/11/14 09:25:09;;;;;;;16.48;4.03;;;;;;;5.38;58.66;101207.41;5009947;28;20045;-78
2021/11/14 09:27:37;;;;;;;13.73;3.90;;;;;;;4.70;58.33;101106.97;5033008;28;20045;-79
2021/11/14 09:30:13;;;;;;;7.28;3.70;;;;;;;4.22;58.17;101022.75;5001776;28;20055;-79
2021/11/14 09:32:40;;;;;;;16.30;4.30;;;;;;;4.66;58.34;101098.22;5013420;28;20062;-79
2021/11/14 09:35:06;;;;;;;10.90;3.28;;;;;;;5.17;58.53;101186.00;4980190;28;20041;-79
2021/11/14 09:37:40;;;;;;;9.77;3.60;;;;;;;4.76;57.84;101121.78;5018340;28;20037;-80
2021/11/14 09:40:09;;;;;;;10.20;3.55;;;;;;;4.64;57.95;101122.22;5001935;28;20049;-79
2021/11/14 09:42:36;;;;;;;12.15;3.47;;;;;;;4.97;58.43;101210.25;5001894;28;20077;-79
2021/11/14 09:45:05;;;;;;;15.43;4.15;;;;;;;4.75;58.85;101169.03;5009611;28;20049;-78
2021/11/14 09:47:33;;;;;;;8.27;3.45;;;;;;;4.91;58.73;101199.72;5017329;28;20124;-78
2021/11/14 09:50:01;;;;;;;12.48;4.10;;;;;;;4.89;58.27;101200.50;5018318;28;20081;-79
2021/11/14 09:52:27;;;;;;;10.48;4.13;;;;;;;4.81;58.96;101183.03;5017220;28;20044;-78
2021/11/14 09:54:53;;;;;;;16.13;4.70;;;;;;;4.80;58.96;101181.25;5012604;28;20037;-78
2021/11/14 09:57:20;;;;;;;10.52;4.05;;;;;;;4.88;59.12;101194.44;5021483;28;20041;-79
2021/11/14 09:59:45;;;;;;;17.75;4.68;;;;;;;4.68;58.63;101144.72;5037623;28;20041;-79
2021/11/14 10:02:12;;;;;;;7.72;3.70;;;;;;;5.04;59.05;101184.69;5011652;28;20046;-78
2021/11/14 10:04:38;;;;;;;10.77;3.53;;;;;;;5.13;58.69;101191.06;5008608;28;20045;-79
2021/11/14 10:07:14;;;;;;;8.65;3.28;;;;;;;5.12;58.98;101197.03;5009204;28;20045;-79
2021/11/14 10:09:50;;;;;;;6.60;3.25;;;;;;;4.94;59.45;101152.53;5024418;28;20038;-78
2021/11/14 10:12:19;;;;;;;16.27;4.18;;;;;;;5.16;59.88;101181.69;5028142;28;20044;-78
2021/11/14 10:14:48;;;;;;;12.75;4.10;;;;;;;4.87;58.72;101114.44;5030137;28;20053;-78
2021/11/14 10:17:45;;;;;;;12.85;3.20;;;;;;;5.35;59.46;101176.31;5020547;28;20059;-80
2021/11/14 10:20:21;;;;;;;8.00;3.90;;;;;;;5.43;59.29;101166.25;5015447;28;20318;-81
2021/11/14 10:22:50;;;;;;;13.55;3.63;;;;;;;5.45;58.98;101171.47;5012848;28;20053;-80
2021/11/14 10:25:21;;;;;;;6.95;3.15;;;;;;;4.79;58.17;101070.31;5013672;28;20068;-79
2021/11/14 10:27:52;;;;;;;7.72;3.20;;;;;;;4.38;58.90;101011.28;5012053;28;20147;-80
2021/11/14 10:30:29;;;;;;;9.80;3.20;;;;;;;5.20;58.43;101160.28;5036793;28;20048;-79
2021/11/14 10:33:08;;;;;;;11.55;3.38;;;;;;;5.24;58.92;101164.72;5000396;28;20109;-79
2021/11/14 10:35:56;;;;;;;15.55;3.80;;;;;;;4.74;58.70;101106.28;5009161;28;20044;-79
2021/11/14 10:38:28;;;;;;;8.05;3.17;;;;;;;4.72;58.45;101083.81;4993865;28;20069;-79
2021/11/14 10:41:01;;;;;;;13.48;3.50;;;;;;;4.98;58.78;101121.72;4987399;28;20042;-78
2021/11/14 10:43:40;;;;;;;12.85;4.00;;;;;;;4.98;58.42;101124.31;5012662;28;20046;-78
2021/11/14 10:46:28;;;;;;;7.68;3.50;;;;;;;5.07;58.49;101159.00;4987986;28;20501;-78
2021/11/14 10:49:03;;;;;;;5.40;2.70;;;;;;;4.76;58.68;101107.16;5009432;28;20046;-79
2021/11/14 10:51:31;;;;;;;6.13;2.75;;;;;;;4.84;58.76;101125.53;4993564;28;20034;-81
2021/11/14 10:53:58;;;;;;;10.38;2.92;;;;;;;4.92;58.91;101136.97;5006479;28;20046;-82
2021/11/14 10:56:27;;;;;;;6.57;3.08;;;;;;;4.51;58.64;101069.31;4993879;28;20966;-80
2021/11/14 10:59:22;;;;;;;5.60;2.80;;;;;;;3.80;58.60;100961.09;4980421;28;20687;-79
2021/11/14 11:02:50;;;;;;;10.00;3.80;;;;;;;4.92;58.90;101155.03;5006520;28;20037;-80
2021/11/14 11:05:22;;;;;;;4.95;2.80;;;;;;;3.71;59.13;100972.81;4914588;29;20099;-80
2021/11/14 11:08:06;;;;;;;4.68;3.40;;;;;;;4.09;59.82;101054.91;4993131;28;20060;-79
2021/11/14 11:10:42;;;;;;;6.70;3.30;;;;;;;4.59;59.94;101139.22;5004404;28;20046;-79
2021/11/14 11:13:33;;;;;;;6.32;3.33;;;;;;;4.40;60.14;101107.59;5005675;28;20034;-81
2021/11/14 11:16:06;;;;;;;4.45;3.40;;;;;;;4.50;60.57;101138.06;4997103;28;20564;-78
2021/11/14 11:18:33;;;;;;;6.13;3.15;;;;;;;4.35;60.37;101109.13;5005567;28;20039;-80
2021/11/14 11:21:05;;;;;;;4.22;2.92;;;;;;;4.52;60.03;101148.41;5006034;28;20046;-80
2021/11/14 11:23:44;;;;;;;;;;;;;;;;;;;;;
2021/11/14 11:26:20;;;;;;;5.72;3.20;;;;;;;3.80;60.68;101046.06;5003961;28;20065;-81
2021/11/14 11:28:50;;;;;;;4.93;3.00;;;;;;;4.44;60.87;101147.25;5009284;28;20046;-78
2021/11/14 11:31:19;;;;;;;5.78;3.25;;;;;;;4.22;61.07;101120.66;5003819;28;20064;-80
2021/11/14 11:33:54;;;;;;;6.03;3.00;;;;;;;4.25;61.38;101112.19;5012206;28;20069;-80
2021/11/14 11:36:24;;;;;;;4.53;2.72;;;;;;;4.14;60.84;101104.03;5019779;28;20046;-80
2021/11/14 11:38:59;;;;;;;7.63;3.25;;;;;;;3.97;61.51;101078.53;4975831;28;20141;-78
2021/11/14 11:41:28;;;;;;;5.00;2.70;;;;;;;4.11;61.87;101109.94;4987019;28;20037;-80
2021/11/14 11:43:57;;;;;;;5.40;2.85;;;;;;;4.05;62.14;101096.84;4971356;28;20136;-80